map of MVZ home
MVZ - Airport
Location
City:  Masvingo, Masvingo, Zimbabwe
Name:Masvingo International Airport
ICAO:FVMV
IATA:MVZ

Details
Type:Airport (Aerodrome, Airfield)
Use:International (customs port of entry)
Latitude:2003'19"S (-20.055332)
Longitude:3051'33"E (30.859111)
Datum:WGS 1984
Elevation:3595 ft (1096 m)
Variation:11.05W (WMM2015 magnetic declination)
-0.04 annual change
Runways:2
Longest:5663 × 59 ft (1726 × 18 m), paved

Time
Time Zone:UTC+2
Local Time:

Weather
METAR:FVMV 200800Z 12008KT CAVOK 30/05 Q1019 NOSIG

Related Locations
Nearby:
Farthest:ITO: 12063 mi / 19414 km
Hilo [Hilo Intl], Hawaii, HI, US

Find:

   beyond  
but within

Other Information
Maps:
NOTAMs:
Links:
Sources:

  
  • flag of Zimbabwe
  

Sectional Chart

Flight Planning
at skyvector.com

Satellite Image

Google Maps Satellite view

 

Copyright © 2004-2018 Karl L. Swartz. All rights reserved.
The Great Circle Mapper name and logo are trademarks of the Great Circle Mapper.
All other trademarks mentioned herein belong to their respective owners.
Please see credits for attibutions and further copyright information.

  Follow gcmap on Facebook Follow gcmap on Twitter Follow gcmap on Google+ GCmap on LinkedIn

hCard Microformat

Geo Microformat